createdAt,value
2018-12-06T00:03:37.351Z,13.83
2018-12-06T00:08:41.847Z,18.60
2018-12-06T00:13:46.348Z,11.70
2018-12-06T00:19:07.255Z,11.93
2018-12-06T00:24:11.751Z,16.00
2018-12-06T00:29:16.317Z,17.53
2018-12-06T00:34:20.865Z,10.67
2018-12-06T00:39:25.347Z,15.50
2018-12-06T00:44:29.866Z,12.53
2018-12-06T00:49:34.443Z,19.00
2018-12-06T00:54:38.926Z,14.53
2018-12-06T00:59:43.404Z,8.80
2018-12-06T01:04:47.904Z,13.37
2018-12-06T01:09:52.392Z,19.37
2018-12-06T01:14:56.897Z,10.80
2018-12-06T01:20:01.391Z,14.23
2018-12-06T01:25:06.974Z,16.43
2018-12-06T01:30:11.457Z,14.13
2018-12-06T01:35:15.961Z,14.17
2018-12-06T01:40:20.506Z,12.17
2018-12-06T01:45:24.990Z,13.07
2018-12-06T01:50:29.510Z,10.73
2018-12-06T01:55:34.007Z,17.33
2018-12-06T02:00:38.514Z,10.93
2018-12-06T02:05:43.000Z,13.93
2018-12-06T02:10:47.481Z,14.53
2018-12-06T02:15:51.961Z,10.37
2018-12-06T02:20:56.446Z,10.53
2018-12-06T02:26:01.038Z,11.23
2018-12-06T02:31:05.518Z,14.57
2018-12-06T02:36:10.001Z,14.20
2018-12-06T02:41:14.481Z,9.27
2018-12-06T02:46:18.967Z,17.10
2018-12-06T02:51:23.466Z,15.00
2018-12-06T02:56:27.951Z,13.60
2018-12-06T03:01:32.549Z,17.10
2018-12-06T03:06:37.037Z,6.00
2018-12-06T03:11:41.519Z,11.43
2018-12-06T03:16:46.014Z,13.80
2018-12-06T03:21:50.510Z,11.07
2018-12-06T03:26:55.018Z,11.20
2018-12-06T03:31:59.522Z,12.70
2018-12-06T03:37:04.014Z,7.37
2018-12-06T03:42:08.503Z,11.67
2018-12-06T03:47:12.986Z,11.53
2018-12-06T03:52:17.487Z,14.90
2018-12-06T03:57:21.979Z,10.70
2018-12-06T04:02:26.454Z,9.60
2018-12-06T04:07:30.936Z,11.73
2018-12-06T04:12:35.435Z,16.50
2018-12-06T04:17:39.928Z,12.77
2018-12-06T04:22:44.427Z,15.70
2018-12-06T04:27:48.908Z,10.07
2018-12-06T04:32:53.400Z,14.10
2018-12-06T04:37:57.938Z,11.10
2018-12-06T04:43:02.410Z,9.27
2018-12-06T04:48:06.898Z,12.53
2018-12-06T04:53:11.378Z,7.77
2018-12-06T04:58:15.856Z,8.40
2018-12-06T05:03:20.345Z,9.77
2018-12-06T05:08:24.826Z,12.43
2018-12-06T05:13:29.318Z,7.70
2018-12-06T05:18:33.846Z,11.50
2018-12-06T05:23:38.338Z,11.77
2018-12-06T05:28:42.827Z,10.93
2018-12-06T05:33:47.310Z,14.47
2018-12-06T05:38:51.806Z,11.10
2018-12-06T05:43:56.294Z,9.53
2018-12-06T05:49:00.777Z,6.83
2018-12-06T05:54:05.279Z,9.27
2018-12-06T05:59:09.781Z,13.67
2018-12-06T06:04:14.266Z,10.30
2018-12-06T06:09:18.854Z,9.27
2018-12-06T06:14:23.352Z,13.07
2018-12-06T06:19:27.873Z,11.03
2018-12-06T06:24:32.421Z,6.73
2018-12-06T06:29:37.023Z,12.37
2018-12-06T06:34:41.506Z,11.27
2018-12-06T06:39:45.998Z,12.17
2018-12-06T06:44:50.478Z,9.00
2018-12-06T06:49:55.003Z,6.37
2018-12-06T06:55:00.087Z,14.73
2018-12-06T07:00:05.214Z,12.70
2018-12-06T07:05:09.714Z,9.63
2018-12-06T07:10:14.224Z,11.50
2018-12-06T07:15:18.718Z,10.80
2018-12-06T07:20:23.231Z,8.30
2018-12-06T07:25:29.297Z,8.63
2018-12-06T07:30:33.838Z,8.43
2018-12-06T07:35:38.335Z,8.00
2018-12-06T07:40:42.839Z,9.03
2018-12-06T07:45:47.342Z,6.30
2018-12-06T07:50:51.842Z,11.37
2018-12-06T07:55:56.421Z,8.90
2018-12-06T08:01:00.926Z,7.07
2018-12-06T08:06:05.541Z,11.60
2018-12-06T08:11:11.621Z,10.93
2018-12-06T08:16:16.128Z,9.37
2018-12-06T08:21:21.766Z,9.17
2018-12-06T08:26:26.262Z,12.57
2018-12-06T08:31:30.778Z,7.43
2018-12-06T08:36:35.295Z,7.70
2018-12-06T08:41:43.922Z,12.17
2018-12-06T08:46:54.566Z,16.03
2018-12-06T08:51:59.361Z,9.90
2018-12-06T08:57:04.230Z,9.30
2018-12-06T09:02:08.791Z,11.53
2018-12-06T09:07:16.002Z,10.40
2018-12-06T09:12:20.545Z,10.03
2018-12-06T09:17:25.064Z,10.37
2018-12-06T09:22:29.571Z,11.73
2018-12-06T09:27:34.069Z,11.67
2018-12-06T09:32:38.579Z,11.87
2018-12-06T09:37:47.142Z,9.13
2018-12-06T09:42:52.420Z,9.17
2018-12-06T09:47:57.250Z,8.13
2018-12-06T09:53:02.106Z,9.00
2018-12-06T09:58:06.599Z,12.10
2018-12-06T10:03:11.085Z,6.00
2018-12-06T10:08:15.581Z,7.33
2018-12-06T10:13:24.490Z,9.60
2018-12-06T10:18:29.713Z,8.17
2018-12-06T10:23:36.183Z,7.00
2018-12-06T10:28:41.719Z,7.53
2018-12-06T10:33:45.274Z,6.67
2018-12-06T10:38:50.668Z,8.10
2018-12-06T10:43:55.669Z,5.87
2018-12-06T10:49:01.138Z,8.87
2018-12-06T10:54:05.678Z,10.10
2018-12-06T10:59:15.534Z,10.73
2018-12-06T11:04:22.840Z,7.53
2018-12-06T11:09:27.513Z,6.43
2018-12-06T11:14:32.016Z,8.47
2018-12-06T11:19:40.002Z,8.10
2018-12-06T11:24:44.502Z,10.63
2018-12-06T11:29:49.829Z,10.23
2018-12-06T11:34:54.398Z,10.33
2018-12-06T11:39:59.721Z,6.57
2018-12-06T11:45:04.509Z,6.50
2018-12-06T11:50:09.290Z,12.07
2018-12-06T11:55:13.819Z,7.70
2018-12-06T12:00:18.350Z,16.07
2018-12-06T12:05:22.859Z,10.40
2018-12-06T12:10:29.493Z,8.87
2018-12-06T12:15:34.031Z,11.60
2018-12-06T12:20:42.618Z,7.50
2018-12-06T12:25:47.980Z,10.80
2018-12-06T12:30:52.674Z,7.90
2018-12-06T12:35:57.195Z,8.00
2018-12-06T12:41:03.945Z,16.67
2018-12-06T12:46:08.513Z,13.07
2018-12-06T12:51:13.054Z,16.07
2018-12-06T12:56:17.590Z,9.70
2018-12-06T13:01:22.320Z,10.83
2018-12-06T13:06:27.630Z,15.63
2018-12-06T13:11:33.777Z,11.43
2018-12-06T13:16:38.273Z,11.47
2018-12-06T13:21:44.622Z,12.70
2018-12-06T13:26:49.114Z,13.07
2018-12-06T13:31:54.931Z,13.33
2018-12-06T13:36:59.430Z,12.70
2018-12-06T13:42:03.927Z,8.33
2018-12-06T13:47:08.434Z,10.50
2018-12-06T13:52:12.918Z,13.53
2018-12-06T13:57:19.691Z,10.33
2018-12-06T14:02:22.011Z,15.17
2018-12-06T14:07:30.383Z,14.30
2018-12-06T14:12:34.906Z,11.47
2018-12-06T14:17:39.411Z,10.53
2018-12-06T14:22:43.941Z,10.63
2018-12-06T14:27:48.498Z,12.30
2018-12-06T14:32:53.970Z,11.87
2018-12-06T14:37:58.546Z,9.80
2018-12-06T14:43:06.594Z,10.70
2018-12-06T14:48:11.266Z,15.97
2018-12-06T14:53:15.802Z,11.73
2018-12-06T14:58:20.705Z,14.03
2018-12-06T15:03:25.309Z,14.23
2018-12-06T15:08:29.905Z,16.67
2018-12-06T15:13:35.819Z,15.37
2018-12-06T15:18:39.110Z,15.00
2018-12-06T15:23:43.639Z,10.37
2018-12-06T15:28:48.258Z,15.23
2018-12-06T15:33:54.650Z,15.87
2018-12-06T15:38:59.967Z,11.27
2018-12-06T15:44:04.534Z,18.53
2018-12-06T15:49:12.461Z,17.43
2018-12-06T15:54:16.986Z,15.53
2018-12-06T15:59:21.499Z,14.73
2018-12-06T16:04:26.034Z,13.87
2018-12-06T16:09:30.794Z,11.00
2018-12-06T16:14:35.337Z,13.23
2018-12-06T16:19:40.063Z,13.57
2018-12-06T16:24:49.082Z,15.87
2018-12-06T16:29:53.723Z,18.87
2018-12-06T16:34:58.351Z,18.33
2018-12-06T16:40:02.891Z,17.30
2018-12-06T16:45:07.847Z,19.23
2018-12-06T16:50:13.893Z,17.57
2018-12-06T16:55:18.441Z,19.30
2018-12-06T17:00:22.949Z,15.47
2018-12-06T17:05:28.253Z,14.60
2018-12-06T17:10:32.772Z,20.73
2018-12-06T17:15:37.306Z,16.00
2018-12-06T17:20:41.866Z,18.43
2018-12-06T17:25:46.394Z,19.17
2018-12-06T17:30:50.986Z,23.13
2018-12-06T17:35:55.583Z,18.90
2018-12-06T17:41:00.220Z,16.63
2018-12-06T17:46:05.983Z,20.47
2018-12-06T17:51:10.499Z,18.87
2018-12-06T17:56:15.037Z,22.97
2018-12-06T18:01:19.616Z,24.50
2018-12-06T18:06:28.619Z,24.37
2018-12-06T18:11:33.591Z,25.03
2018-12-06T18:16:38.593Z,21.60
2018-12-06T18:21:43.521Z,25.40
2018-12-06T18:26:49.811Z,23.77
2018-12-06T18:31:56.111Z,22.40
2018-12-06T18:37:00.685Z,22.93
2018-12-06T18:42:05.243Z,23.67
2018-12-06T18:47:09.783Z,28.43
2018-12-06T18:52:14.360Z,22.23
2018-12-06T18:57:22.987Z,24.87
2018-12-06T19:02:27.532Z,26.67
2018-12-06T19:07:32.846Z,25.80
2018-12-06T19:12:37.553Z,26.67
2018-12-06T19:17:42.093Z,28.83
2018-12-06T19:22:46.645Z,20.50
2018-12-06T19:27:51.998Z,25.93
2018-12-06T19:32:58.004Z,24.83
2018-12-06T19:38:01.206Z,25.87
2018-12-06T19:43:05.761Z,27.10
2018-12-06T19:48:11.217Z,26.23
2018-12-06T19:53:15.758Z,31.13
2018-12-06T19:58:20.300Z,31.57
2018-12-06T20:03:24.895Z,28.70
2018-12-06T20:08:29.462Z,30.27
2018-12-06T20:13:34.094Z,31.30
2018-12-06T20:18:39.628Z,32.17
2018-12-06T20:23:44.167Z,33.47
2018-12-06T20:28:48.754Z,36.60
2018-12-06T20:33:53.341Z,25.30
2018-12-06T20:38:57.922Z,34.90
2018-12-06T20:44:02.449Z,28.90
2018-12-06T20:49:06.998Z,29.50
2018-12-06T21:03:52.256Z,28.87
2018-12-06T21:08:56.782Z,28.67
2018-12-06T21:14:01.402Z,31.53
2018-12-06T21:19:06.038Z,31.40
2018-12-06T21:24:10.573Z,34.50
2018-12-06T21:29:15.187Z,33.43
2018-12-06T21:34:20.013Z,37.33
2018-12-06T21:39:24.554Z,39.23
2018-12-06T21:44:29.081Z,35.40
2018-12-06T21:49:33.685Z,40.03
2018-12-06T21:54:38.242Z,34.27
2018-12-06T21:59:42.778Z,36.63
2018-12-06T22:04:47.313Z,32.60
2018-12-06T22:09:51.854Z,36.33
2018-12-06T22:14:56.542Z,38.53
2018-12-06T22:20:01.135Z,35.80
2018-12-06T22:25:05.798Z,39.90
2018-12-06T22:30:11.725Z,34.33
2018-12-06T22:35:14.938Z,37.87
2018-12-06T22:40:19.467Z,37.10
2018-12-06T22:46:28.210Z,37.37
2018-12-06T22:51:32.731Z,36.03
2018-12-06T22:56:37.326Z,38.37
2018-12-06T23:01:41.911Z,36.37
2018-12-06T23:06:46.406Z,41.47
2018-12-06T23:11:50.916Z,38.37
2018-12-06T23:16:55.474Z,43.33
2018-12-06T23:21:59.972Z,43.90
2018-12-06T23:27:04.546Z,42.87
2018-12-06T23:32:09.153Z,41.00
2018-12-06T23:37:13.710Z,45.17
2018-12-06T23:42:18.213Z,38.27
2018-12-06T23:47:22.707Z,36.80
2018-12-06T23:52:27.234Z,36.90
2018-12-06T23:57:31.738Z,33.40
